Time;durP1;ratioP1;P1;durP2;ratioP2;P2;SDS_P1;SDS_P2;PMS_P1;PMS_P2;Temp;Humidity;BMP_temperature;BMP_pressure;BME280_temperature;BME280_humidity;BME280_pressure;Samples;Min_cycle;Max_cycle;Signal;HPM_P1;HPM_P2
2022/01/30 00:01:55;;;;;;;7.35;3.00;;;-0.50;76.40;;;;;;5077759;28;20046;-87
2022/01/30 00:04:21;;;;;;;5.88;2.65;;;-0.60;76.80;;;;;;5077252;28;20036;-87
2022/01/30 00:06:47;;;;;;;3.50;2.10;;;-0.70;77.20;;;;;;5095930;28;20020;-87
2022/01/30 00:09:19;;;;;;;3.67;2.15;;;-0.80;77.40;;;;;;5080414;28;20020;-87
2022/01/30 00:11:47;;;;;;;5.70;3.03;;;-0.80;77.70;;;;;;5079892;28;20028;-88
2022/01/30 00:14:16;;;;;;;4.35;2.60;;;-0.90;78.10;;;;;;5095352;28;20023;-87
2022/01/30 00:16:41;;;;;;;5.40;2.83;;;-0.90;78.40;;;;;;5096484;28;20028;-87
2022/01/30 00:19:22;;;;;;;5.68;2.70;;;-1.00;78.60;;;;;;5078222;28;20031;-87
2022/01/30 00:21:58;;;;;;;4.68;2.80;;;-1.10;78.90;;;;;;5076459;28;20036;-86
2022/01/30 00:24:42;;;;;;;5.55;2.95;;;-1.10;79.40;;;;;;5064498;28;20035;-87
2022/01/30 00:27:15;;;;;;;4.85;2.80;;;-1.20;79.50;;;;;;5055512;28;20102;-87
2022/01/30 00:29:41;;;;;;;5.60;2.80;;;-1.20;79.80;;;;;;5073206;28;20024;-87
2022/01/30 00:32:07;;;;;;;4.43;2.80;;;-1.20;80.00;;;;;;5051576;28;20573;-87
2022/01/30 00:34:34;;;;;;;5.65;3.00;;;-1.20;80.30;;;;;;5051370;28;20025;-87
2022/01/30 00:37:03;;;;;;;6.55;3.30;;;-1.20;80.60;;;;;;5051919;28;20025;-88
2022/01/30 00:39:29;;;;;;;6.30;3.17;;;-1.20;81.00;;;;;;5052930;28;20028;-87
2022/01/30 00:41:56;;;;;;;6.43;3.22;;;-1.30;81.10;;;;;;5052892;28;20037;-87
2022/01/30 00:44:22;;;;;;;6.13;3.22;;;-1.30;81.60;;;;;;5052922;28;20029;-87
2022/01/30 00:46:48;;;;;;;7.65;4.00;;;-1.30;81.80;;;;;;5053044;28;20032;-88
2022/01/30 00:49:14;;;;;;;7.65;3.70;;;-1.30;81.90;;;;;;5052057;28;20112;-88
2022/01/30 00:51:39;;;;;;;9.98;4.25;;;-1.30;82.30;;;;;;5051668;28;20075;-90
2022/01/30 00:54:05;;;;;;;6.93;3.78;;;-1.40;82.60;;;;;;5052009;28;20026;-89
2022/01/30 00:56:31;;;;;;;7.20;3.97;;;-1.40;82.80;;;;;;5051566;28;20035;-88
2022/01/30 00:58:57;;;;;;;9.50;3.88;;;-1.40;83.20;;;;;;5052043;28;20033;-87
2022/01/30 01:01:23;;;;;;;9.68;4.28;;;-1.40;83.40;;;;;;5053508;28;20025;-87
2022/01/30 01:03:49;;;;;;;9.55;3.95;;;-1.40;83.40;;;;;;5051676;28;20495;-88
2022/01/30 01:06:15;;;;;;;7.32;3.83;;;-1.40;83.70;;;;;;5051150;28;20486;-89
2022/01/30 01:08:58;;;;;;;6.47;3.70;;;-1.40;84.00;;;;;;5067319;28;20067;-89
2022/01/30 01:24:38;;;;;;;8.02;3.95;;;-1.50;84.60;;;;;;5077902;28;20086;-89
2022/01/30 01:27:04;;;;;;;8.45;4.13;;;-1.40;84.20;;;;;;5077486;28;20032;-89
2022/01/30 01:29:29;;;;;;;8.02;4.15;;;-1.50;84.20;;;;;;5077185;28;20025;-89
2022/01/30 01:31:55;;;;;;;7.13;3.97;;;-1.40;84.00;;;;;;5079529;28;20519;-88
2022/01/30 01:34:36;;;;;;;7.68;4.20;;;-1.40;83.90;;;;;;5080337;28;20055;-88
2022/01/30 01:37:02;;;;;;;9.40;4.00;;;-1.40;83.80;;;;;;5078785;28;20123;-87
2022/01/30 01:39:29;;;;;;;8.82;4.15;;;-1.40;83.60;;;;;;5097199;28;20420;-87
2022/01/30 01:41:55;;;;;;;9.10;4.50;;;-1.40;83.40;;;;;;5096406;28;20039;-88
2022/01/30 01:44:33;;;;;;;10.32;4.60;;;-1.40;83.60;;;;;;5096853;28;20077;-87
2022/01/30 01:47:00;;;;;;;11.27;4.85;;;-1.50;83.60;;;;;;5079193;28;20096;-86
2022/01/30 01:49:29;;;;;;;8.70;4.50;;;-1.50;83.90;;;;;;5097232;28;20035;-88
2022/01/30 01:54:40;;;;;;;9.45;5.25;;;-1.50;84.40;;;;;;5097345;28;20473;-86
2022/01/30 01:57:06;;;;;;;10.63;4.95;;;-1.50;84.10;;;;;;5079029;28;20032;-86
2022/01/30 01:59:32;;;;;;;6.60;4.10;;;-1.50;84.30;;;;;;5079246;28;20039;-86
2022/01/30 02:02:01;;;;;;;6.80;4.30;;;-1.50;84.30;;;;;;5097466;28;20082;-86
2022/01/30 02:04:28;;;;;;;10.30;5.00;;;-1.50;84.40;;;;;;5078483;28;20078;-86
2022/01/30 02:07:07;;;;;;;11.48;5.07;;;-1.50;84.70;;;;;;5078683;28;20024;-86
2022/01/30 02:09:34;;;;;;;8.77;4.38;;;-1.50;84.80;;;;;;5096953;28;20029;-87
2022/01/30 02:12:01;;;;;;;7.95;4.30;;;-1.50;84.80;;;;;;5078577;28;20034;-86
2022/01/30 02:14:38;;;;;;;8.77;4.32;;;-1.60;85.40;;;;;;5078191;28;20025;-87
2022/01/30 02:25:38;;;;;;;7.47;4.20;;;-1.60;84.40;;;;;;5096545;28;20040;-86
2022/01/30 02:28:10;;;;;;;8.07;4.13;;;-1.50;84.00;;;;;;5095957;28;20044;-86
2022/01/30 02:30:41;;;;;;;10.45;4.35;;;-1.50;83.40;;;;;;5097028;28;20023;-87
2022/01/30 02:33:07;;;;;;;8.98;4.25;;;-1.50;83.30;;;;;;5078753;28;20347;-88
2022/01/30 02:35:33;;;;;;;8.10;3.60;;;-1.50;83.40;;;;;;5079907;28;20081;-87
2022/01/30 02:38:00;;;;;;;9.07;4.30;;;-1.50;83.20;;;;;;5078780;28;20371;-87
2022/01/30 02:40:27;;;;;;;7.43;4.10;;;-1.60;82.80;;;;;;5097114;28;20330;-87
2022/01/30 02:42:54;;;;;;;8.45;4.47;;;-1.50;82.60;;;;;;5079772;28;20032;-86
2022/01/30 02:45:22;;;;;;;7.47;4.30;;;-1.50;82.60;;;;;;5078360;28;20073;-87
2022/01/30 02:50:38;;;;;;;11.32;4.50;;;-1.50;82.50;;;;;;5095377;28;20040;-86
2022/01/30 02:53:08;;;;;;;7.57;3.85;;;-1.50;82.40;;;;;;5078459;28;20377;-86
2022/01/30 02:55:35;;;;;;;8.77;4.03;;;-1.50;82.60;;;;;;5096582;28;20024;-87
2022/01/30 02:58:00;;;;;;;5.68;3.58;;;-1.50;82.80;;;;;;5077507;28;20020;-86
2022/01/30 03:00:26;;;;;;;7.05;3.95;;;-1.50;82.40;;;;;;5097013;28;20024;-86
2022/01/30 03:02:52;;;;;;;5.72;3.70;;;-1.50;81.80;;;;;;5077279;28;20114;-86
2022/01/30 03:05:17;;;;;;;8.18;3.42;;;-1.50;82.10;;;;;;5095672;28;20028;-87
2022/01/30 03:07:43;;;;;;;6.78;3.80;;;-1.50;81.90;;;;;;5096249;28;20102;-87
2022/01/30 03:10:11;;;;;;;7.10;3.67;;;-1.50;81.90;;;;;;5103212;28;20032;-87
2022/01/30 03:12:37;;;;;;;7.70;3.78;;;-1.40;81.50;;;;;;5083636;28;20167;-88
2022/01/30 03:15:04;;;;;;;8.70;4.18;;;-1.40;81.50;;;;;;5077753;28;20027;-87
2022/01/30 03:17:31;;;;;;;6.15;3.70;;;-1.40;81.40;;;;;;5095642;28;20020;-87
2022/01/30 03:19:58;;;;;;;8.65;3.90;;;-1.40;81.30;;;;;;5077423;28;20032;-88
2022/01/30 03:22:25;;;;;;;7.28;3.63;;;-1.40;81.40;;;;;;5095207;28;20054;-86
2022/01/30 03:24:51;;;;;;;6.95;3.42;;;-1.40;81.30;;;;;;5095061;28;20032;-88
2022/01/30 03:27:17;;;;;;;8.23;4.05;;;-1.30;81.00;;;;;;5095379;28;20031;-87
2022/01/30 03:29:50;;;;;;;7.57;3.80;;;-1.30;80.80;;;;;;5067888;28;20138;-88
2022/01/30 03:32:16;;;;;;;8.57;4.20;;;-1.20;80.60;;;;;;5056570;28;20543;-87
2022/01/30 03:34:42;;;;;;;6.97;3.55;;;-1.20;80.80;;;;;;5056008;28;20222;-88
2022/01/30 03:37:07;;;;;;;9.38;4.05;;;-1.30;81.40;;;;;;5055538;28;20028;-86
2022/01/30 03:39:33;;;;;;;8.32;3.65;;;-1.20;81.00;;;;;;5055785;28;20071;-87
2022/01/30 03:41:58;;;;;;;7.30;3.80;;;-1.20;80.90;;;;;;5074002;28;20470;-87
2022/01/30 03:44:24;;;;;;;8.43;3.72;;;-1.20;80.90;;;;;;5074607;28;20040;-87
2022/01/30 03:46:50;;;;;;;7.93;3.88;;;-1.20;80.80;;;;;;5074565;28;20020;-88
2022/01/30 03:49:15;;;;;;;9.15;3.85;;;-1.20;81.20;;;;;;5056145;28;20451;-86
2022/01/30 03:51:41;;;;;;;9.25;4.18;;;-1.10;80.50;;;;;;5056671;28;20063;-86
2022/01/30 03:54:07;;;;;;;7.93;4.03;;;-1.10;80.10;;;;;;5074161;28;20032;-88
2022/01/30 03:56:34;;;;;;;8.48;4.10;;;-1.00;79.30;;;;;;5073724;28;20447;-88
2022/01/30 03:58:59;;;;;;;9.38;4.15;;;-1.00;78.30;;;;;;5056511;28;20028;-88
2022/01/30 04:01:25;;;;;;;6.97;3.80;;;-1.00;78.50;;;;;;5070054;28;20119;-89
2022/01/30 04:03:51;;;;;;;8.07;3.38;;;-1.00;78.70;;;;;;5076511;28;20035;-88
2022/01/30 04:06:17;;;;;;;7.03;3.05;;;-1.00;78.00;;;;;;5078740;28;20032;-88
2022/01/30 04:08:44;;;;;;;8.05;3.40;;;-0.90;77.70;;;;;;5094710;28;20036;-86
2022/01/30 04:11:10;;;;;;;7.38;3.47;;;-0.90;77.20;;;;;;5094672;28;20469;-88
2022/01/30 04:13:35;;;;;;;8.07;3.80;;;-0.80;76.60;;;;;;5076457;28;20030;-88
2022/01/30 04:16:01;;;;;;;6.43;3.60;;;-0.80;76.60;;;;;;5094585;28;20479;-88
2022/01/30 04:18:27;;;;;;;7.85;3.72;;;-0.80;76.30;;;;;;5079316;28;20031;-87
2022/01/30 04:20:53;;;;;;;6.60;3.08;;;-0.80;76.50;;;;;;5078316;28;20024;-88
2022/01/30 04:23:19;;;;;;;8.88;3.15;;;-0.80;76.20;;;;;;5096922;28;20505;-88
2022/01/30 04:25:44;;;;;;;8.88;3.70;;;-0.80;76.20;;;;;;5076433;28;20489;-87
2022/01/30 04:28:10;;;;;;;7.95;3.30;;;-0.80;76.30;;;;;;5096228;28;20028;-87
2022/01/30 04:30:37;;;;;;;9.20;3.40;;;-0.80;76.30;;;;;;5078943;28;20024;-87
2022/01/30 04:33:03;;;;;;;5.07;3.30;;;-0.80;76.50;;;;;;5061182;28;20056;-88
2022/01/30 04:35:30;;;;;;;6.60;3.03;;;-0.80;76.10;;;;;;5074697;28;20466;-89
2022/01/30 04:59:50;;;;;;;5.85;3.40;;;-0.80;75.90;;;;;;5095028;28;20058;-88
2022/01/30 05:05:34;;;;;;;7.40;3.33;;;-0.80;75.80;;;;;;5057313;28;20033;-89
2022/01/30 05:07:56;;;;;;;6.07;3.20;;;-0.80;76.00;;;;;;5080197;28;20020;-90
2022/01/30 05:10:21;;;;;;;5.45;2.92;;;-0.90;76.20;;;;;;5064059;28;20029;-90
2022/01/30 05:12:51;;;;;;;6.20;3.20;;;-0.90;76.20;;;;;;5074036;28;20029;-88
2022/01/30 05:15:19;;;;;;;11.00;3.53;;;-0.80;76.20;;;;;;5076890;28;20020;-88
2022/01/30 05:17:45;;;;;;;6.47;3.30;;;-0.90;76.30;;;;;;5064651;28;20406;-89
2022/01/30 05:20:12;;;;;;;7.30;3.83;;;-0.90;76.50;;;;;;5063251;28;20070;-90
2022/01/30 05:22:38;;;;;;;5.13;3.20;;;-0.90;76.50;;;;;;5056089;28;20059;-88
2022/01/30 05:25:04;;;;;;;7.18;3.75;;;-0.90;76.50;;;;;;5076379;28;20024;-85
2022/01/30 05:27:30;;;;;;;7.00;3.40;;;-0.90;76.70;;;;;;5055963;28;20024;-87
2022/01/30 05:29:57;;;;;;;7.45;3.30;;;-0.90;76.70;;;;;;5063206;28;20060;-86
2022/01/30 05:32:23;;;;;;;6.22;3.70;;;-0.90;76.70;;;;;;5077723;28;20410;-87
2022/01/30 05:34:49;;;;;;;6.45;3.42;;;-0.80;76.60;;;;;;5058909;28;20027;-87
2022/01/30 05:37:19;;;;;;;6.25;3.58;;;-0.80;76.60;;;;;;5082633;28;20062;-88
2022/01/30 05:39:46;;;;;;;9.17;4.30;;;-0.80;76.40;;;;;;5069130;28;20028;-88
2022/01/30 05:42:13;;;;;;;6.93;3.70;;;-0.80;76.30;;;;;;5056338;28;20268;-89
2022/01/30 05:44:49;;;;;;;8.65;4.22;;;-0.80;76.30;;;;;;5067210;28;20028;-89
2022/01/30 05:47:23;;;;;;;8.32;3.88;;;-0.80;76.30;;;;;;5060181;28;20393;-88
2022/01/30 05:49:49;;;;;;;7.72;3.70;;;-0.80;76.60;;;;;;5055046;28;20056;-89
2022/01/30 05:52:15;;;;;;;8.50;3.80;;;-0.80;76.70;;;;;;5055639;28;20086;-90
2022/01/30 05:54:41;;;;;;;8.75;4.05;;;-0.80;77.10;;;;;;5056884;28;20402;-88
2022/01/30 05:57:06;;;;;;;8.13;3.58;;;-0.80;78.10;;;;;;5058272;28;20387;-89
2022/01/30 05:59:32;;;;;;;7.32;3.58;;;-0.80;79.80;;;;;;5058333;28;20051;-88
2022/01/30 06:01:58;;;;;;;7.18;3.40;;;-0.90;80.70;;;;;;5059542;28;20028;-87
2022/01/30 06:04:24;;;;;;;9.68;3.60;;;-1.00;81.30;;;;;;5060516;28;20458;-86
2022/01/30 06:06:51;;;;;;;7.40;3.55;;;-0.90;81.60;;;;;;5058855;28;20059;-88
2022/01/30 06:11:45;;;;;;;5.43;3.40;;;-1.00;81.70;;;;;;5076679;28;20028;-91
2022/01/30 06:14:10;;;;;;;6.22;3.70;;;-0.90;82.00;;;;;;5060279;28;20021;-90
2022/01/30 06:16:36;;;;;;;8.15;3.38;;;-1.00;83.00;;;;;;5064836;28;20494;-90
2022/01/30 06:19:03;;;;;;;5.95;3.20;;;-1.00;84.10;;;;;;5081676;28;20123;-90
2022/01/30 06:21:28;;;;;;;6.63;3.50;;;-1.00;84.80;;;;;;5059393;28;20128;-89
2022/01/30 06:23:55;;;;;;;7.25;3.75;;;-1.10;85.70;;;;;;5058795;28;20449;-89
2022/01/30 06:26:22;;;;;;;6.63;3.45;;;-1.00;86.70;;;;;;5058862;28;20454;-91
2022/01/30 06:28:48;;;;;;;5.95;3.45;;;-1.00;86.30;;;;;;5058902;28;20123;-89
2022/01/30 06:31:15;;;;;;;6.93;3.03;;;-1.00;86.00;;;;;;5076168;28;20493;-89
2022/01/30 06:33:41;;;;;;;6.28;3.35;;;-1.00;86.10;;;;;;5076450;28;20080;-89
2022/01/30 06:36:07;;;;;;;10.57;3.50;;;-1.00;86.70;;;;;;5078479;28;20020;-88
2022/01/30 06:38:33;;;;;;;6.13;3.45;;;-1.00;88.50;;;;;;5078407;28;20440;-89
2022/01/30 06:41:01;;;;;;;7.60;3.45;;;-1.00;91.40;;;;;;5077846;28;20033;-86
2022/01/30 06:43:27;;;;;;;10.57;3.63;;;-1.10;93.20;;;;;;5057892;28;20036;-87
2022/01/30 06:45:52;;;;;;;8.25;4.03;;;-1.20;95.20;;;;;;5075911;28;20036;-88
2022/01/30 06:48:19;;;;;;;8.40;4.50;;;-1.30;97.20;;;;;;5076243;28;20477;-86
2022/01/30 06:50:45;;;;;;;11.23;4.28;;;-1.40;99.30;;;;;;5075753;28;20034;-87
2022/01/30 06:53:12;;;;;;;8.60;3.85;;;-1.40;99.90;;;;;;5057566;28;20115;-88
2022/01/30 06:55:42;;;;;;;8.75;4.22;;;-1.50;99.90;;;;;;5057514;28;20443;-87
2022/01/30 06:58:12;;;;;;;7.32;4.00;;;-1.60;99.90;;;;;;5041656;28;20497;-89
2022/01/30 07:00:38;;;;;;;8.15;4.15;;;-1.60;99.90;;;;;;5040896;28;20033;-87
2022/01/30 07:03:04;;;;;;;8.27;3.63;;;-1.60;99.90;;;;;;5056970;28;20486;-88
2022/01/30 07:05:30;;;;;;;6.65;4.05;;;-1.70;99.90;;;;;;5062223;28;20027;-89
2022/01/30 07:07:56;;;;;;;7.32;3.95;;;-1.60;99.90;;;;;;5062951;28;20036;-89
2022/01/30 07:10:22;;;;;;;9.98;4.30;;;-1.60;99.90;;;;;;5069417;28;20036;-88
2022/01/30 07:12:47;;;;;;;8.82;4.95;;;-1.60;99.90;;;;;;5053542;28;20446;-88
2022/01/30 07:15:14;;;;;;;10.07;4.63;;;-1.60;99.90;;;;;;5057408;28;20378;-89
2022/01/30 07:17:40;;;;;;;11.52;4.68;;;-1.70;99.90;;;;;;5057114;28;20473;-88
2022/01/30 07:20:07;;;;;;;9.25;4.30;;;-1.70;99.90;;;;;;5056982;28;20024;-89
2022/01/30 07:22:36;;;;;;;11.00;4.30;;;-1.70;99.90;;;;;;5082423;28;20032;-87
2022/01/30 07:25:05;;;;;;;8.35;4.35;;;-1.80;99.90;;;;;;5058564;28;20078;-86
2022/01/30 07:27:31;;;;;;;7.30;4.30;;;-1.80;99.90;;;;;;5074822;28;20025;-84
2022/01/30 07:29:57;;;;;;;11.95;5.03;;;-1.80;99.90;;;;;;5056850;28;20138;-82
2022/01/30 07:32:26;;;;;;;133.82;58.67;;;-1.80;99.90;;;;;;5057878;28;20135;-94
2022/01/30 07:34:52;;;;;;;69.95;34.15;;;-1.90;99.90;;;;;;5078800;28;20044;-92
2022/01/30 07:37:21;;;;;;;28.73;14.07;;;-1.90;99.90;;;;;;5060444;28;20031;-92
2022/01/30 07:39:48;;;;;;;15.48;7.35;;;-1.90;99.90;;;;;;5057478;28;20497;-86
2022/01/30 07:42:14;;;;;;;14.45;6.75;;;-1.80;99.90;;;;;;5056310;28;20035;-82
2022/01/30 07:44:40;;;;;;;15.75;6.95;;;-1.70;99.90;;;;;;5056477;28;20024;-82
2022/01/30 07:47:06;;;;;;;13.02;6.40;;;-1.70;99.90;;;;;;5056256;28;20056;-84
2022/01/30 07:49:32;;;;;;;12.38;5.68;;;-1.60;99.90;;;;;;5072774;28;20060;-84
2022/01/30 07:51:58;;;;;;;13.02;5.20;;;-1.60;99.90;;;;;;5075795;28;20475;-83
2022/01/30 07:54:24;;;;;;;9.30;5.15;;;-1.40;99.90;;;;;;5086835;28;20071;-80
2022/01/30 07:56:50;;;;;;;12.98;6.82;;;-1.40;99.90;;;;;;5102148;28;20020;-83
2022/01/30 07:59:16;;;;;;;25.17;11.30;;;-1.40;99.90;;;;;;5104922;28;20039;-82
2022/01/30 08:01:45;;;;;;;13.50;7.05;;;-1.30;99.90;;;;;;5083821;28;20036;-85
2022/01/30 08:04:12;;;;;;;10.68;5.03;;;-1.30;99.90;;;;;;5105033;28;20074;-84
2022/01/30 08:06:39;;;;;;;10.30;5.20;;;-1.20;99.90;;;;;;5085365;28;20474;-84
2022/01/30 08:09:05;;;;;;;10.18;5.63;;;-1.20;99.90;;;;;;5085086;28;20074;-87
2022/01/30 08:11:30;;;;;;;9.38;5.18;;;-1.20;99.90;;;;;;5082761;28;20436;-85
2022/01/30 08:13:56;;;;;;;13.80;5.18;;;-1.20;99.90;;;;;;5084329;28;20039;-87
2022/01/30 08:16:24;;;;;;;13.32;5.95;;;-1.20;99.90;;;;;;5064585;28;20044;-88
2022/01/30 08:18:49;;;;;;;13.23;5.97;;;-1.10;99.90;;;;;;5096714;28;20035;-86
2022/01/30 08:21:15;;;;;;;12.63;6.18;;;-1.10;99.90;;;;;;5085245;28;20032;-86
2022/01/30 08:23:41;;;;;;;15.35;5.57;;;-1.10;99.90;;;;;;5085034;28;20102;-86
2022/01/30 08:26:06;;;;;;;14.68;5.88;;;-1.00;99.90;;;;;;5103996;28;20020;-85
2022/01/30 08:28:32;;;;;;;15.82;6.22;;;-1.00;99.90;;;;;;5066874;28;20058;-86
2022/01/30 08:30:58;;;;;;;13.23;6.00;;;-1.00;99.90;;;;;;5078926;28;20032;-90
2022/01/30 08:33:24;;;;;;;10.40;5.30;;;-1.00;99.90;;;;;;5074495;28;20142;-81
2022/01/30 08:35:50;;;;;;;11.75;5.32;;;-1.00;99.90;;;;;;5056163;28;20032;-80
2022/01/30 08:38:18;;;;;;;9.73;5.28;;;-1.00;99.90;;;;;;5091210;28;20103;-85
2022/01/30 08:40:45;;;;;;;8.25;4.57;;;-1.00;99.90;;;;;;5091836;28;20567;-87
2022/01/30 08:43:11;;;;;;;9.40;4.95;;;-1.00;99.90;;;;;;5073095;28;20031;-86
2022/01/30 08:45:37;;;;;;;11.43;5.70;;;-0.90;99.90;;;;;;5074773;28;20024;-87
2022/01/30 08:48:03;;;;;;;13.27;5.32;;;-0.90;99.90;;;;;;5072466;28;20691;-85
2022/01/30 08:50:29;;;;;;;10.35;5.43;;;-0.90;99.90;;;;;;5073565;28;20027;-82
2022/01/30 08:52:55;;;;;;;11.40;5.60;;;-0.80;99.90;;;;;;5097084;28;20051;-84
2022/01/30 08:55:21;;;;;;;12.45;5.78;;;-0.80;99.90;;;;;;5064840;28;20056;-85
2022/01/30 08:57:47;;;;;;;14.05;6.75;;;-0.80;99.90;;;;;;5071707;28;20024;-86
2022/01/30 09:00:17;;;;;;;15.07;6.53;;;-0.90;99.90;;;;;;5084405;28;20028;-85
2022/01/30 09:02:43;;;;;;;10.52;5.88;;;-0.90;99.90;;;;;;5085799;28;20066;-84
2022/01/30 09:05:11;;;;;;;12.85;6.07;;;-0.90;99.90;;;;;;5100122;28;20036;-84
2022/01/30 09:07:37;;;;;;;12.70;5.85;;;-0.90;99.90;;;;;;5085113;28;20031;-83
2022/01/30 09:10:06;;;;;;;9.88;5.53;;;-0.90;99.90;;;;;;5080289;28;20047;-89
2022/01/30 09:12:32;;;;;;;10.18;5.85;;;-0.90;99.90;;;;;;5101294;28;20028;-86
2022/01/30 09:14:58;;;;;;;11.65;5.72;;;-0.90;99.90;;;;;;5081686;28;20457;-84
2022/01/30 09:17:26;;;;;;;14.77;7.25;;;-0.90;99.90;;;;;;5081194;28;20056;-87
2022/01/30 09:19:52;;;;;;;14.07;6.80;;;-0.90;99.90;;;;;;5101467;28;20043;-86
2022/01/30 09:22:21;;;;;;;13.18;6.40;;;-0.90;99.90;;;;;;5093526;28;20040;-86
2022/01/30 09:24:49;;;;;;;12.18;6.78;;;-0.90;99.90;;;;;;5097259;28;20039;-87
2022/01/30 09:27:16;;;;;;;10.77;6.30;;;-0.90;99.90;;;;;;5079565;28;20145;-87
2022/01/30 09:29:44;;;;;;;11.40;6.50;;;-0.90;99.90;;;;;;5084726;28;20026;-87
2022/01/30 09:32:10;;;;;;;11.73;6.30;;;-0.90;99.90;;;;;;5081045;28;20036;-87
2022/01/30 09:34:36;;;;;;;10.55;5.85;;;-0.90;99.90;;;;;;5077308;28;20494;-87
2022/01/30 09:37:04;;;;;;;10.23;6.22;;;-0.90;99.90;;;;;;5076647;28;20047;-84
2022/01/30 09:39:30;;;;;;;10.52;5.93;;;-0.90;99.90;;;;;;5099560;28;20032;-84
2022/01/30 09:41:58;;;;;;;9.50;5.93;;;-0.90;99.90;;;;;;5083229;28;20388;-80
2022/01/30 09:44:24;;;;;;;10.75;6.30;;;-0.80;99.90;;;;;;5084187;28;20024;-85
2022/01/30 09:46:50;;;;;;;10.23;6.13;;;-0.80;99.90;;;;;;5107135;28;20068;-85
2022/01/30 09:49:21;;;;;;;11.43;6.32;;;-0.80;99.90;;;;;;5067731;28;20052;-84
2022/01/30 09:51:47;;;;;;;10.02;6.35;;;-0.80;99.90;;;;;;5087491;28;20020;-85
2022/01/30 09:54:15;;;;;;;12.25;6.43;;;-0.80;99.90;;;;;;5084044;28;20030;-87
2022/01/30 09:56:41;;;;;;;9.50;6.07;;;-0.80;99.90;;;;;;5082533;28;20059;-86
2022/01/30 09:59:07;;;;;;;12.23;6.45;;;-0.80;99.90;;;;;;5088202;28;20413;-86
2022/01/30 10:01:35;;;;;;;10.93;6.38;;;-0.70;99.90;;;;;;5092327;28;20677;-87
2022/01/30 10:04:03;;;;;;;13.32;6.95;;;-0.70;99.90;;;;;;5089441;28;20490;-85
2022/01/30 10:06:36;;;;;;;11.93;6.55;;;-0.70;99.90;;;;;;5091118;28;20026;-86
2022/01/30 10:09:24;;;;;;;12.85;6.68;;;-0.70;99.90;;;;;;5089125;28;20089;-84
2022/01/30 10:12:00;;;;;;;12.05;6.90;;;-0.70;99.90;;;;;;5113570;28;20038;-86
2022/01/30 10:14:27;;;;;;;14.63;6.85;;;-0.60;99.90;;;;;;5095503;28;20036;-87
2022/01/30 10:16:52;;;;;;;12.57;7.20;;;-0.60;99.90;;;;;;5081228;28;20034;-87
2022/01/30 10:19:20;;;;;;;13.80;8.20;;;-0.50;99.90;;;;;;5084918;28;20035;-83
2022/01/30 10:21:49;;;;;;;23.88;12.73;;;-0.50;99.90;;;;;;5104896;28;20035;-88
2022/01/30 10:24:18;;;;;;;16.90;9.30;;;-0.40;99.90;;;;;;5087664;28;20461;-84
2022/01/30 10:26:44;;;;;;;14.32;7.47;;;-0.40;99.90;;;;;;5101410;28;20028;-85
2022/01/30 10:29:26;;;;;;;10.70;6.65;;;-0.30;99.90;;;;;;5092959;28;20389;-85
2022/01/30 10:32:03;;;;;;;9.45;5.88;;;-0.30;99.90;;;;;;5073358;28;20028;-85
2022/01/30 10:34:30;;;;;;;11.55;6.28;;;-0.20;99.90;;;;;;5101422;28;20016;-83
2022/01/30 10:37:19;;;;;;;13.52;6.35;;;-0.20;99.90;;;;;;5077097;28;20024;-89
2022/01/30 10:40:17;;;;;;;12.70;6.47;;;-0.10;99.90;;;;;;5077764;28;20032;-86
2022/01/30 10:42:49;;;;;;;12.40;6.20;;;-0.10;99.90;;;;;;5081463;28;20040;-87
2022/01/30 10:45:28;;;;;;;12.27;7.13;;;-0.10;99.90;;;;;;5088102;28;20179;-90
2022/01/30 10:48:16;;;;;;;11.77;6.20;;;0.00;99.90;;;;;;5099586;28;20040;-86
2022/01/30 10:50:47;;;;;;;12.63;6.70;;;0.10;99.90;;;;;;5059328;28;20041;-87
2022/01/30 10:53:38;;;;;;;10.90;6.18;;;0.10;99.90;;;;;;5057752;28;20025;-88
2022/01/30 10:56:16;;;;;;;13.82;6.40;;;0.10;99.90;;;;;;5057317;28;20031;-86
2022/01/30 10:58:42;;;;;;;11.13;6.50;;;0.00;99.90;;;;;;5061354;28;20131;-87
2022/01/30 11:01:08;;;;;;;11.05;6.22;;;0.20;99.90;;;;;;5078775;28;20062;-87
2022/01/30 11:03:38;;;;;;;10.85;6.38;;;0.30;99.90;;;;;;5056584;28;20032;-85
2022/01/30 11:06:08;;;;;;;11.73;6.50;;;0.30;99.90;;;;;;5055087;28;20066;-86
2022/01/30 11:08:35;;;;;;;11.47;6.50;;;0.50;99.90;;;;;;5074210;28;20020;-87
2022/01/30 11:11:10;;;;;;;12.07;6.47;;;0.50;99.90;;;;;;5056392;28;20025;-86
2022/01/30 11:13:48;;;;;;;11.27;6.20;;;0.60;99.90;;;;;;5056279;28;20024;-88
2022/01/30 11:19:01;;;;;;;10.95;6.35;;;0.70;99.90;;;;;;5044003;28;20040;-87
2022/01/30 11:21:28;;;;;;;11.23;6.20;;;0.70;99.90;;;;;;5057408;28;20131;-86
2022/01/30 11:23:57;;;;;;;10.50;6.10;;;0.80;99.90;;;;;;5057512;28;20445;-87
2022/01/30 11:26:23;;;;;;;11.85;6.07;;;0.80;99.90;;;;;;5057215;28;20035;-87
2022/01/30 11:28:49;;;;;;;10.10;6.05;;;0.90;99.90;;;;;;5057082;28;20021;-87
2022/01/30 11:31:16;;;;;;;10.43;5.97;;;1.00;99.90;;;;;;5074970;28;20028;-87
2022/01/30 11:33:44;;;;;;;9.73;6.05;;;1.00;99.90;;;;;;5053936;28;20056;-87
2022/01/30 11:36:11;;;;;;;12.90;6.18;;;1.00;99.90;;;;;;5054077;28;20025;-87
2022/01/30 11:38:37;;;;;;;9.75;6.00;;;1.10;99.90;;;;;;5053979;28;20032;-85
2022/01/30 11:41:17;;;;;;;9.80;5.80;;;1.10;99.90;;;;;;5055032;28;20525;-86
2022/01/30 11:44:17;;;;;;;10.95;5.85;;;1.20;99.90;;;;;;5054201;28;20033;-86
2022/01/30 11:47:00;;;;;;;11.43;6.18;;;1.30;99.90;;;;;;5053993;28;20388;-87
2022/01/30 11:49:42;;;;;;;9.50;5.70;;;1.50;99.90;;;;;;5054324;28;20035;-86
2022/01/30 11:52:12;;;;;;;9.48;5.68;;;1.70;99.90;;;;;;5055669;28;20025;-86
2022/01/30 11:54:45;;;;;;;9.53;5.73;;;1.80;99.90;;;;;;5055710;28;20521;-86
2022/01/30 11:57:20;;;;;;;10.27;5.55;;;1.90;99.90;;;;;;5054370;28;20021;-86
2022/01/30 11:59:53;;;;;;;8.27;5.35;;;1.90;99.90;;;;;;5054368;28;20028;-85
2022/01/30 12:02:30;;;;;;;10.20;5.80;;;1.90;99.90;;;;;;5054026;28;20029;-86
2022/01/30 12:05:04;;;;;;;10.50;5.40;;;2.00;99.90;;;;;;5053751;28;20037;-83
2022/01/30 12:07:47;;;;;;;8.90;5.60;;;2.30;99.90;;;;;;5053271;28;20029;-84
2022/01/30 12:10:15;;;;;;;9.20;5.47;;;2.50;99.90;;;;;;5053174;28;20029;-84
2022/01/30 12:13:02;;;;;;;10.18;5.72;;;2.50;99.90;;;;;;5053733;28;20025;-85
2022/01/30 12:15:41;;;;;;;10.02;6.20;;;2.50;99.90;;;;;;5053674;28;20046;-85
2022/01/30 12:18:07;;;;;;;10.15;5.93;;;2.40;98.80;;;;;;5053357;28;20021;-85
2022/01/30 12:20:56;;;;;;;11.75;6.50;;;2.40;99.90;;;;;;5053505;28;20065;-83
2022/01/30 12:23:26;;;;;;;10.45;6.15;;;2.30;99.90;;;;;;5054125;28;20037;-88
2022/01/30 12:26:05;;;;;;;10.70;6.32;;;2.40;99.90;;;;;;5055149;28;20033;-84
2022/01/30 12:28:52;;;;;;;10.63;6.15;;;2.30;99.90;;;;;;5053624;28;20052;-85
2022/01/30 12:31:35;;;;;;;9.18;6.38;;;2.30;99.90;;;;;;5052317;28;20032;-85
2022/01/30 12:34:05;;;;;;;9.93;6.38;;;2.50;99.90;;;;;;5053111;28;20520;-85
2022/01/30 12:36:40;;;;;;;10.30;5.97;;;3.00;99.90;;;;;;5052723;28;20356;-85
2022/01/30 12:39:18;;;;;;;11.65;5.40;;;3.90;99.90;;;;;;5053189;28;20036;-84
2022/01/30 12:41:45;;;;;;;9.95;5.22;;;4.90;96.30;;;;;;5052268;28;20036;-84
2022/01/30 12:44:16;;;;;;;8.63;5.13;;;5.60;92.10;;;;;;5052146;28;20035;-85
2022/01/30 12:46:48;;;;;;;9.60;5.03;;;6.30;84.70;;;;;;5053464;28;20025;-84
2022/01/30 12:49:17;;;;;;;7.07;4.65;;;6.80;83.40;;;;;;5052627;28;20021;-85
2022/01/30 12:51:50;;;;;;;8.30;4.50;;;7.20;81.80;;;;;;5052599;28;20025;-85
2022/01/30 12:54:19;;;;;;;8.00;4.30;;;7.70;79.90;;;;;;5056254;28;20036;-85
2022/01/30 12:56:46;;;;;;;6.20;4.68;;;8.10;76.80;;;;;;5060771;28;20107;-85
2022/01/30 12:59:14;;;;;;;5.57;4.22;;;8.30;72.90;;;;;;5054110;28;20025;-84
2022/01/30 13:01:43;;;;;;;7.60;4.45;;;8.20;69.70;;;;;;5052134;28;20112;-83
2022/01/30 13:04:13;;;;;;;8.52;4.82;;;8.10;69.80;;;;;;5052007;28;20028;-85
2022/01/30 13:06:44;;;;;;;6.50;4.25;;;8.10;71.00;;;;;;5052934;28;20096;-85
2022/01/30 13:09:18;;;;;;;8.18;4.68;;;8.10;71.30;;;;;;5052876;28;20053;-84
2022/01/30 13:11:45;;;;;;;7.97;4.60;;;8.50;69.50;;;;;;5053451;28;20029;-86
2022/01/30 13:14:11;;;;;;;7.82;4.80;;;8.30;67.00;;;;;;5052136;28;20025;-88
2022/01/30 13:16:44;;;;;;;7.57;4.65;;;7.50;67.00;;;;;;5052415;28;20036;-86
2022/01/30 13:19:12;;;;;;;8.35;5.20;;;6.50;69.40;;;;;;5051330;28;20032;-86
2022/01/30 13:21:48;;;;;;;9.15;5.68;;;5.80;71.80;;;;;;5051961;28;20045;-86
2022/01/30 13:24:19;;;;;;;8.77;5.82;;;5.10;74.10;;;;;;5053241;28;20032;-85
2022/01/30 13:26:46;;;;;;;11.05;5.78;;;4.50;76.20;;;;;;5053352;28;20025;-84
2022/01/30 13:29:20;;;;;;;8.20;5.28;;;4.00;78.40;;;;;;5053392;28;20021;-83
2022/01/30 13:31:49;;;;;;;10.52;5.50;;;3.70;80.60;;;;;;5052198;28;20120;-86
2022/01/30 13:34:19;;;;;;;7.38;4.72;;;3.40;82.80;;;;;;5073314;28;20048;-88
2022/01/30 13:36:53;;;;;;;9.80;5.40;;;3.10;84.70;;;;;;5057750;28;20048;-85
2022/01/30 13:39:26;;;;;;;9.73;5.18;;;2.90;87.30;;;;;;5079850;28;20032;-86
2022/01/30 13:42:03;;;;;;;9.23;5.20;;;2.70;89.70;;;;;;5069935;28;20130;-83
2022/01/30 13:44:39;;;;;;;9.18;5.32;;;2.60;91.20;;;;;;5060333;28;20466;-85
2022/01/30 13:47:05;;;;;;;9.18;5.32;;;2.50;92.00;;;;;;5055628;28;20482;-85
2022/01/30 13:49:43;;;;;;;9.02;5.05;;;2.40;93.10;;;;;;5072445;28;20029;-86
2022/01/30 13:52:10;;;;;;;8.98;5.00;;;2.30;93.60;;;;;;5055894;28;20028;-87